Time;durP1;ratioP1;P1;durP2;ratioP2;P2;SDS_P1;SDS_P2;PMS_P1;PMS_P2;Temp;Humidity;BMP_temperature;BMP_pressure;BME280_temperature;BME280_humidity;BME280_pressure;Samples;Min_cycle;Max_cycle;Signal;HPM_P1;HPM_P2
2022/08/14 00:02:01;;;;;;;;;;;21.50;75.70;;;;;;5092783;28;19928;-58
2022/08/14 00:04:30;;;;;;;;;;;21.50;75.80;;;;;;5092629;28;19924;-63
2022/08/14 00:07:09;;;;;;;;;;;21.50;76.00;;;;;;5092955;28;19924;-63
2022/08/14 00:09:37;;;;;;;;;;;21.50;76.10;;;;;;5092965;28;19924;-63
2022/08/14 00:12:23;;;;;;;;;;;21.40;76.40;;;;;;5077959;28;19925;-63
2022/08/14 00:15:02;;;;;;;;;;;21.40;76.40;;;;;;5072430;28;19928;-62
2022/08/14 00:17:29;;;;;;;;;;;21.30;76.70;;;;;;5073573;28;20383;-61
2022/08/14 00:20:05;;;;;;;;;;;21.30;76.80;;;;;;5092556;28;19928;-62
2022/08/14 00:22:33;;;;;;;;;;;21.30;76.90;;;;;;5091294;28;19936;-61
2022/08/14 00:25:21;;;;;;;;;;;21.20;77.20;;;;;;5091419;28;19924;-59
2022/08/14 00:27:48;;;;;;;;;;;21.10;77.30;;;;;;5091301;28;20330;-62
2022/08/14 00:30:21;;;;;;;;;;;21.10;77.60;;;;;;5092285;28;19924;-63
2022/08/14 00:32:48;;;;;;;;;;;21.10;78.10;;;;;;5092415;28;19925;-63
2022/08/14 00:35:22;;;;;;;;;;;21.10;78.70;;;;;;5090982;28;20401;-63
2022/08/14 00:38:10;;;;;;;;;;;21.10;78.80;;;;;;5092500;28;19928;-62
2022/08/14 00:40:38;;;;;;;;;;;21.10;78.90;;;;;;5092203;28;20414;-57
2022/08/14 00:43:12;;;;;;;;;;;21.20;78.90;;;;;;5078159;28;19924;-56
2022/08/14 00:45:41;;;;;;;;;;;21.20;79.00;;;;;;5092193;28;19928;-63
2022/08/14 00:48:09;;;;;;;;;;;21.20;79.10;;;;;;5091945;28;19935;-62
2022/08/14 00:50:37;;;;;;;;;;;21.20;79.20;;;;;;5091785;28;19924;-63
2022/08/14 00:53:07;;;;;;;;;;;21.20;79.10;;;;;;5090224;28;19924;-62
2022/08/14 00:55:40;;;;;;;;;;;21.20;79.20;;;;;;5092032;28;19928;-61
2022/08/14 01:01:02;;;;;;;;;;;21.10;79.60;;;;;;5090961;28;19924;-60
2022/08/14 01:03:30;;;;;;;;;;;21.10;79.60;;;;;;5087998;28;19925;-61
2022/08/14 01:05:58;;;;;;;;;;;21.00;79.80;;;;;;5088186;28;19924;-61
2022/08/14 01:08:28;;;;;;;;;;;21.00;80.10;;;;;;5091002;28;19928;-58
2022/08/14 01:11:16;;;;;;;;;;;21.00;80.30;;;;;;5089777;28;19928;-58
2022/08/14 01:13:46;;;;;;;;;;;20.90;80.50;;;;;;5090259;28;20550;-60
2022/08/14 01:16:23;;;;;;;;;;;20.90;80.80;;;;;;5091099;28;19924;-61
2022/08/14 01:21:41;;;;;;;;;;;20.90;81.00;;;;;;5091417;28;19931;-61
2022/08/14 01:24:20;;;;;;;;;;;20.80;81.00;;;;;;5091109;28;19925;-62
2022/08/14 01:26:58;;;;;;;;;;;20.80;81.10;;;;;;5084600;28;20383;-59
2022/08/14 01:29:36;;;;;;;;;;;20.80;81.40;;;;;;5088166;28;19931;-57
2022/08/14 01:32:24;;;;;;;;;;;20.70;82.40;;;;;;5075495;28;19924;-58
2022/08/14 01:34:53;;;;;;;;;;;20.70;82.60;;;;;;5074926;28;19925;-61
2022/08/14 01:37:43;;;;;;;;;;;20.70;83.30;;;;;;5076822;28;20406;-56
2022/08/14 01:40:13;;;;;;;;;;;20.70;83.70;;;;;;5095383;28;20379;-58
2022/08/14 01:42:46;;;;;;;;;;;20.70;84.30;;;;;;5081147;28;20299;-58
2022/08/14 01:45:13;;;;;;;;;;;20.70;84.20;;;;;;5073118;28;19924;-61
2022/08/14 01:47:51;;;;;;;;;;;20.60;84.80;;;;;;5077697;28;19924;-59
2022/08/14 01:50:30;;;;;;;;;;;20.60;84.70;;;;;;5094191;28;20406;-61
2022/08/14 01:53:00;;;;;;;;;;;20.60;84.80;;;;;;5094201;28;19939;-62
2022/08/14 01:55:30;;;;;;;;;;;20.60;84.80;;;;;;5093969;28;19931;-62
2022/08/14 01:57:59;;;;;;;;;;;20.50;84.90;;;;;;5093379;28;19924;-59
2022/08/14 02:00:52;;;;;;;;;;;20.50;84.80;;;;;;5094143;28;19931;-60
2022/08/14 02:03:23;;;;;;;;;;;20.50;85.20;;;;;;5092580;28;19990;-60
2022/08/14 02:05:58;;;;;;;;;;;20.50;85.30;;;;;;5093780;28;20424;-60
2022/08/14 02:08:30;;;;;;;;;;;20.50;85.40;;;;;;5093882;28;20428;-58
2022/08/14 02:11:20;;;;;;;;;;;20.40;85.40;;;;;;5093824;28;20303;-58
2022/08/14 02:13:48;;;;;;;;;;;20.40;85.30;;;;;;5093573;28;19924;-60
2022/08/14 02:16:18;;;;;;;;;;;20.40;85.40;;;;;;5092448;28;19946;-59
2022/08/14 02:18:49;;;;;;;;;;;20.30;85.40;;;;;;5093873;28;19924;-59
2022/08/14 02:21:17;;;;;;;;;;;20.30;85.60;;;;;;5093147;28;19924;-59
2022/08/14 02:23:50;;;;;;;;;;;20.20;85.70;;;;;;5092653;28;19955;-62
2022/08/14 02:26:24;;;;;;;;;;;20.10;86.10;;;;;;5093350;28;19931;-59
2022/08/14 02:29:00;;;;;;;;;;;20.00;86.30;;;;;;5092168;28;20293;-56
2022/08/14 02:31:32;;;;;;;;;;;20.00;86.50;;;;;;5093586;28;19924;-61
2022/08/14 02:34:20;;;;;;;;;;;19.90;86.70;;;;;;5093655;28;19928;-62
2022/08/14 02:36:53;;;;;;;;;;;19.80;86.90;;;;;;5091992;28;19924;-55
2022/08/14 02:39:43;;;;;;;;;;;19.80;87.20;;;;;;5093275;28;19931;-57
2022/08/14 02:42:13;;;;;;;;;;;19.70;87.30;;;;;;5093197;28;19924;-62
2022/08/14 02:44:42;;;;;;;;;;;19.60;87.50;;;;;;5093172;28;19924;-57
2022/08/14 02:47:16;;;;;;;;;;;19.60;87.70;;;;;;5093168;28;20290;-62
2022/08/14 02:49:45;;;;;;;;;;;19.60;87.90;;;;;;5092864;28;19947;-55
2022/08/14 02:52:21;;;;;;;;;;;19.50;88.10;;;;;;5092886;28;20391;-58
2022/08/14 02:55:09;;;;;;;;;;;19.50;88.30;;;;;;5091816;28;20272;-55
2022/08/14 02:57:36;;;;;;;;;;;19.40;88.60;;;;;;5093055;28;19935;-59
2022/08/14 03:00:08;;;;;;;;;;;19.40;88.80;;;;;;5093174;28;19931;-55
2022/08/14 03:02:36;;;;;;;;;;;19.40;89.60;;;;;;5092817;28;19924;-59
2022/08/14 03:05:25;;;;;;;;;;;19.40;89.20;;;;;;5092919;28;19939;-60
2022/08/14 03:07:53;;;;;;;;;;;19.30;89.50;;;;;;5092753;28;19924;-57
2022/08/14 03:10:21;;;;;;;;;;;19.30;89.60;;;;;;5092756;28;19947;-57
2022/08/14 03:13:02;;;;;;;;;;;19.30;89.80;;;;;;5092588;28;20303;-60
2022/08/14 03:15:37;;;;;;;;;;;19.30;90.00;;;;;;5092598;28;19924;-61
2022/08/14 03:18:10;;;;;;;;;;;19.30;90.10;;;;;;5092700;28;19924;-61
2022/08/14 03:20:38;;;;;;;;;;;19.20;90.10;;;;;;5091203;28;20389;-57
2022/08/14 03:23:06;;;;;;;;;;;19.20;90.20;;;;;;5091466;28;19928;-58
2022/08/14 03:25:34;;;;;;;;;;;19.20;90.40;;;;;;5091197;28;19924;-58
2022/08/14 03:28:08;;;;;;;;;;;19.20;90.40;;;;;;5092538;28;19924;-57
2022/08/14 03:30:58;;;;;;;;;;;19.20;90.40;;;;;;5092512;28;19924;-58
2022/08/14 03:33:27;;;;;;;;;;;19.20;90.50;;;;;;5091572;28;19928;-56
2022/08/14 03:36:08;;;;;;;;;;;19.20;90.50;;;;;;5092447;28;19931;-55
2022/08/14 03:38:58;;;;;;;;;;;19.10;90.50;;;;;;5091333;28;19928;-56
2022/08/14 03:41:45;;;;;;;;;;;19.10;90.60;;;;;;5091303;28;19924;-55
2022/08/14 03:44:12;;;;;;;;;;;19.10;90.70;;;;;;5092199;28;19931;-55
2022/08/14 03:47:00;;;;;;;;;;;19.10;90.70;;;;;;5092157;28;19931;-55
2022/08/14 03:49:29;;;;;;;;;;;19.10;90.90;;;;;;5092174;28;19924;-56
2022/08/14 03:51:57;;;;;;;;;;;19.10;90.90;;;;;;5091979;28;19924;-55
2022/08/14 03:54:28;;;;;;;;;;;19.10;90.90;;;;;;5091054;28;20302;-56
2022/08/14 03:56:59;;;;;;;;;;;19.10;90.80;;;;;;5092279;28;19932;-54
2022/08/14 03:59:31;;;;;;;;;;;19.20;90.70;;;;;;5092561;28;20398;-59
2022/08/14 04:01:59;;;;;;;;;;;19.30;90.60;;;;;;5092081;28;20375;-60
2022/08/14 04:04:31;;;;;;;;;;;19.40;90.50;;;;;;5090895;28;20489;-60
2022/08/14 04:06:59;;;;;;;;;;;19.40;90.40;;;;;;5092021;28;19931;-59
2022/08/14 04:09:27;;;;;;;;;;;19.50;90.30;;;;;;5091948;28;19931;-62
2022/08/14 04:11:55;;;;;;;;;;;19.50;90.30;;;;;;5092058;28;19924;-60
2022/08/14 04:14:27;;;;;;;;;;;19.50;90.30;;;;;;5090693;28;19931;-60
2022/08/14 04:16:55;;;;;;;;;;;19.50;90.20;;;;;;5092164;28;19931;-62
2022/08/14 04:19:23;;;;;;;;;;;19.60;90.20;;;;;;5092340;28;20367;-62
2022/08/14 04:21:54;;;;;;;;;;;19.50;90.10;;;;;;5090839;28;20371;-61
2022/08/14 04:24:31;;;;;;;;;;;19.60;90.10;;;;;;5091929;28;20485;-61
2022/08/14 04:27:07;;;;;;;;;;;19.60;90.00;;;;;;5091862;28;20327;-62
2022/08/14 04:29:37;;;;;;;;;;;19.50;90.00;;;;;;5091729;28;19932;-61
2022/08/14 04:32:06;;;;;;;;;;;19.50;90.00;;;;;;5090317;28;20375;-62
2022/08/14 04:34:54;;;;;;;;;;;19.50;90.00;;;;;;5091884;28;19924;-62
2022/08/14 04:45:43;;;;;;;;;;;19.40;89.90;;;;;;5095548;28;20397;-59
2022/08/14 04:48:13;;;;;;;;;;;19.40;89.90;;;;;;5081293;28;19925;-58
2022/08/14 04:51:01;;;;;;;;;;;19.40;90.00;;;;;;5084793;28;19932;-62
2022/08/14 04:53:30;;;;;;;;;;;19.40;90.00;;;;;;5087217;28;19925;-59
2022/08/14 04:56:03;;;;;;;;;;;19.30;90.00;;;;;;5071804;28;19929;-62
2022/08/14 04:58:37;;;;;;;;;;;19.30;90.10;;;;;;5086204;28;20551;-62
2022/08/14 05:01:06;;;;;;;;;;;19.20;90.00;;;;;;5074046;28;19928;-59
2022/08/14 05:03:44;;;;;;;;;;;19.20;90.10;;;;;;5069777;28;19928;-57
2022/08/14 05:06:11;;;;;;;;;;;19.20;90.10;;;;;;5068427;28;19928;-62
2022/08/14 05:08:59;;;;;;;;;;;19.20;90.10;;;;;;5086454;28;19924;-55
2022/08/14 05:11:27;;;;;;;;;;;19.10;90.20;;;;;;5089889;28;19928;-56
2022/08/14 05:13:55;;;;;;;;;;;19.10;90.20;;;;;;5088152;28;19924;-61
2022/08/14 05:16:43;;;;;;;;;;;19.00;90.30;;;;;;5088253;28;19924;-59
2022/08/14 05:19:13;;;;;;;;;;;19.00;90.40;;;;;;5071591;28;19924;-57
2022/08/14 05:21:57;;;;;;;;;;;18.90;90.40;;;;;;5070095;28;19929;-57
2022/08/14 05:24:44;;;;;;;;;;;18.90;90.50;;;;;;5089570;28;19924;-61
2022/08/14 05:27:19;;;;;;;;;;;18.90;90.60;;;;;;5090070;28;19924;-56
2022/08/14 05:29:51;;;;;;;;;;;18.90;90.70;;;;;;5091377;28;19924;-56
2022/08/14 05:32:20;;;;;;;;;;;18.80;90.70;;;;;;5091263;28;19924;-57
2022/08/14 05:34:49;;;;;;;;;;;18.80;90.80;;;;;;5090941;28;19928;-60
2022/08/14 05:37:16;;;;;;;;;;;18.80;90.90;;;;;;5077293;28;20471;-57
2022/08/14 05:39:43;;;;;;;;;;;18.80;91.00;;;;;;5091227;28;20432;-56
2022/08/14 05:42:11;;;;;;;;;;;18.80;91.10;;;;;;5091221;28;20303;-58
2022/08/14 05:44:53;;;;;;;;;;;18.80;91.20;;;;;;5091001;28;19924;-55
2022/08/14 05:47:22;;;;;;;;;;;18.80;91.20;;;;;;5090819;28;19928;-58
2022/08/14 05:49:49;;;;;;;;;;;18.80;91.30;;;;;;5071182;28;19931;-55
2022/08/14 05:52:18;;;;;;;;;;;18.80;91.30;;;;;;5070628;28;19924;-57
2022/08/14 05:55:07;;;;;;;;;;;18.80;91.30;;;;;;5068872;28;19932;-57
2022/08/14 05:57:44;;;;;;;;;;;18.90;91.40;;;;;;5071126;28;19931;-58
2022/08/14 06:00:13;;;;;;;;;;;18.90;91.40;;;;;;5087853;28;19931;-55
2022/08/14 06:02:57;;;;;;;;;;;18.90;91.30;;;;;;5083430;28;20386;-56
2022/08/14 06:05:27;;;;;;;;;;;19.00;91.40;;;;;;5065964;28;19925;-58
2022/08/14 06:07:59;;;;;;;;;;;19.00;91.30;;;;;;5076334;28;19924;-55
2022/08/14 06:10:27;;;;;;;;;;;19.10;91.30;;;;;;5090672;28;20295;-56
2022/08/14 06:13:00;;;;;;;;;;;19.10;91.70;;;;;;5090351;28;19924;-55
2022/08/14 06:15:28;;;;;;;;;;;19.10;91.40;;;;;;5088846;28;19924;-57
2022/08/14 06:17:57;;;;;;;;;;;19.20;91.40;;;;;;5086081;28;19939;-56
2022/08/14 06:20:27;;;;;;;;;;;19.20;91.40;;;;;;5067084;28;19928;-55
2022/08/14 06:22:56;;;;;;;;;;;19.20;91.40;;;;;;5072774;28;19924;-56
2022/08/14 06:25:25;;;;;;;;;;;19.30;91.40;;;;;;5089428;28;19924;-61
2022/08/14 06:27:54;;;;;;;;;;;19.40;91.40;;;;;;5090113;28;19924;-61
2022/08/14 06:30:26;;;;;;;;;;;19.40;91.40;;;;;;5089520;28;19924;-62
2022/08/14 06:33:13;;;;;;;;;;;19.50;91.50;;;;;;5082129;28;20311;-61
2022/08/14 06:35:42;;;;;;;;;;;19.50;91.40;;;;;;5067538;28;19931;-61
2022/08/14 06:38:17;;;;;;;;;;;19.60;91.40;;;;;;5080177;28;19924;-61
2022/08/14 06:40:45;;;;;;;;;;;19.60;91.40;;;;;;5088804;28;19928;-56
2022/08/14 06:43:13;;;;;;;;;;;19.70;91.40;;;;;;5089811;28;19924;-62
2022/08/14 06:45:42;;;;;;;;;;;19.80;91.30;;;;;;5089903;28;20107;-60
2022/08/14 06:48:23;;;;;;;;;;;19.90;91.30;;;;;;5086344;28;20303;-63
2022/08/14 06:50:52;;;;;;;;;;;19.90;91.20;;;;;;5069563;28;19925;-62
2022/08/14 06:53:20;;;;;;;;;;;20.00;91.20;;;;;;5075349;28;19924;-61
2022/08/14 06:55:54;;;;;;;;;;;20.10;91.20;;;;;;5089715;28;19931;-62
2022/08/14 06:58:29;;;;;;;;;;;20.20;91.20;;;;;;5089551;28;20355;-60
2022/08/14 07:06:53;;;;;;;;;;;20.70;90.90;;;;;;5066913;28;19931;-62
2022/08/14 07:09:22;;;;;;;;;;;20.80;90.80;;;;;;5089096;28;19935;-54
2022/08/14 07:11:50;;;;;;;;;;;21.00;90.50;;;;;;5089591;28;19931;-53
2022/08/14 07:14:18;;;;;;;;;;;21.00;90.10;;;;;;5088734;28;20029;-54
2022/08/14 07:16:45;;;;;;;;;;;21.20;90.00;;;;;;5089225;28;19924;-55
2022/08/14 07:19:16;;;;;;;;;;;21.20;89.80;;;;;;5079905;28;20176;-59
2022/08/14 07:21:47;;;;;;;;;;;21.30;89.60;;;;;;5069108;28;19925;-59
2022/08/14 07:24:17;;;;;;;;;;;21.40;89.10;;;;;;5084053;28;19931;-60
2022/08/14 07:26:52;;;;;;;;;;;21.40;88.50;;;;;;5089414;28;19924;-61
2022/08/14 07:29:21;;;;;;;;;;;21.40;87.80;;;;;;5088919;28;19928;-55
2022/08/14 07:31:55;;;;;;;;;;;21.50;87.60;;;;;;5087958;28;19924;-59
2022/08/14 07:34:22;;;;;;;;;;;21.50;87.20;;;;;;5079630;28;19925;-61
2022/08/14 07:37:04;;;;;;;;;;;21.50;87.00;;;;;;5069336;28;19935;-59
2022/08/14 07:39:32;;;;;;;;;;;21.50;86.80;;;;;;5088885;28;20307;-56
2022/08/14 07:42:01;;;;;;;;;;;21.60;87.00;;;;;;5088987;28;20287;-62
2022/08/14 07:44:29;;;;;;;;;;;21.60;86.80;;;;;;5087351;28;20445;-54
2022/08/14 07:47:12;;;;;;;;;;;21.60;86.80;;;;;;5088538;28;20376;-55
2022/08/14 07:49:40;;;;;;;;;;;21.60;86.90;;;;;;5078288;28;19928;-56
2022/08/14 07:52:09;;;;;;;;;;;21.60;86.90;;;;;;5067586;28;19928;-55
2022/08/14 07:54:40;;;;;;;;;;;21.70;86.50;;;;;;5086251;28;19935;-57
2022/08/14 07:57:09;;;;;;;;;;;21.70;86.50;;;;;;5087505;28;20393;-55
2022/08/14 07:59:40;;;;;;;;;;;21.80;86.30;;;;;;5089116;28;19932;-60
2022/08/14 08:02:14;;;;;;;;;;;21.90;85.70;;;;;;5088677;28;19931;-55
2022/08/14 08:04:52;;;;;;;;;;;22.00;86.00;;;;;;5077712;28;19924;-60
2022/08/14 08:07:26;;;;;;;;;;;22.20;85.60;;;;;;5070610;28;19947;-62
2022/08/14 08:09:58;;;;;;;;;;;22.30;85.10;;;;;;5088659;28;20350;-56
2022/08/14 08:12:27;;;;;;;;;;;22.40;84.50;;;;;;5088535;28;19931;-54
2022/08/14 08:14:59;;;;;;;;;;;22.50;83.70;;;;;;5088309;28;19947;-58
2022/08/14 08:17:36;;;;;;;;;;;22.60;83.80;;;;;;5088651;28;20379;-61
2022/08/14 08:20:19;;;;;;;;;;;22.70;83.20;;;;;;5087000;28;19975;-62
2022/08/14 08:22:49;;;;;;;;;;;22.80;81.80;;;;;;5073335;28;19925;-57
2022/08/14 08:25:23;;;;;;;;;;;22.90;81.90;;;;;;5092604;28;19924;-56
2022/08/14 08:27:54;;;;;;;;;;;23.00;82.30;;;;;;5093074;28;19924;-58
2022/08/14 08:30:23;;;;;;;;;;;23.10;82.00;;;;;;5093027;28;19928;-59
2022/08/14 08:32:52;;;;;;;;;;;23.20;81.40;;;;;;5092211;28;19959;-57
2022/08/14 08:35:20;;;;;;;;;;;23.30;81.30;;;;;;5079292;28;19924;-55
2022/08/14 08:37:48;;;;;;;;;;;23.40;81.20;;;;;;5078513;28;19928;-56
2022/08/14 08:40:30;;;;;;;;;;;23.50;80.80;;;;;;5092254;28;20406;-56
2022/08/14 08:42:59;;;;;;;;;;;23.50;80.70;;;;;;5092103;28;20327;-56
2022/08/14 08:45:28;;;;;;;;;;;23.60;80.30;;;;;;5092486;28;19924;-55
2022/08/14 08:47:55;;;;;;;;;;;23.80;79.70;;;;;;5092399;28;19931;-56
2022/08/14 08:50:29;;;;;;;;;;;23.80;78.70;;;;;;5079259;28;19931;-61
2022/08/14 08:52:58;;;;;;;;;;;23.90;77.90;;;;;;5074865;28;19935;-62
2022/08/14 08:55:28;;;;;;;;;;;24.10;78.30;;;;;;5091878;28;19931;-62
2022/08/14 08:57:56;;;;;;;;;;;24.10;78.00;;;;;;5092126;28;20312;-61
2022/08/14 09:00:24;;;;;;;;;;;24.30;78.30;;;;;;5092139;28;19924;-59
2022/08/14 09:02:58;;;;;;;;;;;24.40;77.60;;;;;;5091986;28;19932;-61
2022/08/14 09:05:25;;;;;;;;;;;24.50;75.80;;;;;;5079527;28;20394;-62
2022/08/14 09:07:53;;;;;;;;;;;24.60;74.60;;;;;;5077508;28;20276;-62
2022/08/14 09:10:22;;;;;;;;;;;24.70;74.80;;;;;;5091635;28;19924;-62
2022/08/14 09:12:55;;;;;;;;;;;24.80;75.20;;;;;;5091484;28;19939;-59
2022/08/14 09:15:22;;;;;;;;;;;24.90;74.80;;;;;;5090343;28;19931;-63
2022/08/14 09:17:50;;;;;;;;;;;25.00;74.60;;;;;;5091454;28;19935;-61
2022/08/14 09:20:18;;;;;;;;;;;25.10;74.60;;;;;;5081814;28;19928;-63
2022/08/14 09:22:57;;;;;;;;;;;25.20;73.10;;;;;;5074252;28;19932;-60
2022/08/14 09:25:24;;;;;;;;;;;25.30;73.20;;;;;;5091592;28;20354;-58
2022/08/14 09:28:12;;;;;;;;;;;25.40;72.90;;;;;;5089986;28;19931;-59
2022/08/14 09:30:46;;;;;;;;;;;25.60;72.70;;;;;;5087819;28;19924;-63
2022/08/14 09:33:40;;;;;;;;;;;25.70;72.70;;;;;;5087657;28;19935;-60
2022/08/14 09:36:41;;;;;;;;;;;25.80;71.10;;;;;;5071445;28;20272;-60
2022/08/14 09:39:28;;;;;;;;;;;26.00;71.10;;;;;;5073035;28;19928;-59
2022/08/14 09:42:17;;;;;;;;;;;26.10;71.00;;;;;;5090993;28;19931;-60
2022/08/14 09:45:03;;;;;;;;;;;26.30;70.80;;;;;;5090820;28;19928;-60
2022/08/14 09:47:46;;;;;;;;;;;26.40;68.80;;;;;;5091053;28;19932;-65
2022/08/14 09:50:19;;;;;;;;;;;26.60;68.50;;;;;;5083739;28;20293;-59
2022/08/14 09:52:49;;;;;;;;;;;26.70;67.60;;;;;;5072361;28;19924;-59
2022/08/14 09:55:22;;;;;;;;;;;26.80;66.20;;;;;;5090861;28;19924;-63
2022/08/14 09:57:51;;;;;;;;;;;26.90;66.50;;;;;;5089438;28;19928;-58
2022/08/14 10:00:34;;;;;;;;;;;27.00;67.10;;;;;;5089555;28;19924;-63
2022/08/14 10:03:02;;;;;;;;;;;27.10;66.50;;;;;;5090579;28;19924;-58
2022/08/14 10:05:33;;;;;;;;;;;27.20;66.50;;;;;;5082415;28;19929;-63
2022/08/14 10:08:15;;;;;;;;;;;27.30;66.60;;;;;;5078159;28;19924;-62
2022/08/14 10:10:52;;;;;;;;;;;27.40;66.60;;;;;;5089099;28;19953;-57
2022/08/14 10:13:29;;;;;;;;;;;27.50;66.50;;;;;;5090606;28;20322;-63
2022/08/14 10:16:16;;;;;;;;;;;27.60;66.50;;;;;;5089352;28;19924;-61
2022/08/14 10:19:20;;;;;;;;;;;27.70;66.40;;;;;;5090415;28;19935;-62
2022/08/14 10:21:59;;;;;;;;;;;27.90;66.20;;;;;;5071188;28;20285;-62
2022/08/14 10:24:47;;;;;;;;;;;28.00;65.80;;;;;;5087827;28;19924;-62
2022/08/14 10:27:22;;;;;;;;;;;28.20;65.70;;;;;;5090173;28;19928;-62
2022/08/14 10:29:50;;;;;;;;;;;28.30;65.50;;;;;;5090213;28;19931;-60
2022/08/14 10:32:17;;;;;;;;;;;28.50;64.70;;;;;;5090172;28;19925;-61
2022/08/14 10:35:06;;;;;;;;;;;28.60;64.20;;;;;;5087757;28;19928;-59
2022/08/14 10:37:45;;;;;;;;;;;28.70;63.90;;;;;;5075123;28;19928;-61
2022/08/14 10:40:14;;;;;;;;;;;28.90;62.80;;;;;;5089815;28;19924;-54
2022/08/14 10:43:02;;;;;;;;;;;29.00;62.90;;;;;;5089376;28;20505;-57
2022/08/14 10:45:31;;;;;;;;;;;29.00;62.90;;;;;;5089771;28;19931;-56
2022/08/14 10:48:16;;;;;;;;;;;29.20;63.50;;;;;;5088746;28;19931;-54
2022/08/14 10:51:03;;;;;;;;;;;29.30;62.70;;;;;;5079395;28;19932;-61
2022/08/14 10:53:36;;;;;;;;;;;29.60;62.00;;;;;;5076302;28;19924;-58
2022/08/14 10:56:10;;;;;;;;;;;29.70;61.10;;;;;;5090007;28;19924;-59
2022/08/14 10:59:06;;;;;;;;;;;29.70;61.10;;;;;;5089462;28;19931;-59
2022/08/14 11:01:38;;;;;;;;;;;29.80;60.90;;;;;;5086648;28;20362;-55
2022/08/14 11:04:24;;;;;;;;;;;29.90;60.50;;;;;;5086001;28;19924;-54
2022/08/14 11:06:54;;;;;;;;;;;30.10;60.00;;;;;;5071232;28;20444;-55
2022/08/14 11:09:22;;;;;;;;;;;30.20;58.70;;;;;;5087485;28;19931;-57
2022/08/14 11:11:56;;;;;;;;;;;30.30;58.30;;;;;;5088472;28;19924;-55
2022/08/14 11:14:53;;;;;;;;;;;30.40;58.40;;;;;;5057168;28;19986;-54
2022/08/14 11:17:27;;;;;;;;;;;30.50;58.20;;;;;;5089220;28;19928;-57
2022/08/14 11:20:02;;;;;;;;;;;30.70;57.80;;;;;;5088621;28;20224;-60
2022/08/14 11:22:30;;;;;;;;;;;30.70;57.10;;;;;;5084417;28;19933;-59
2022/08/14 11:25:19;;;;;;;;;;;30.80;56.60;;;;;;5069268;28;19925;-60
2022/08/14 11:27:48;;;;;;;;;;;30.90;56.50;;;;;;5075117;28;20455;-55
2022/08/14 11:30:21;;;;;;;;;;;30.90;56.30;;;;;;5089418;28;20390;-58
2022/08/14 11:33:09;;;;;;;;;;;31.00;56.20;;;;;;5088916;28;20356;-61
2022/08/14 11:35:37;;;;;;;;;;;31.20;56.30;;;;;;5086195;28;20299;-55
2022/08/14 11:38:14;;;;;;;;;;;31.30;56.50;;;;;;5077614;28;19928;-55
2022/08/14 11:40:45;;;;;;;;;;;31.40;55.50;;;;;;5088028;28;20275;-58
2022/08/14 11:43:15;;;;;;;;;;;31.60;54.80;;;;;;5088896;28;19924;-59
2022/08/14 11:45:47;;;;;;;;;;;31.70;53.60;;;;;;5088915;28;19932;-56
2022/08/14 11:48:22;;;;;;;;;;;31.80;54.00;;;;;;5089091;28;19931;-55
2022/08/14 11:51:22;;;;;;;;;;;32.00;53.30;;;;;;5081867;28;19928;-57
2022/08/14 11:53:52;;;;;;;;;;;32.10;52.40;;;;;;5077270;28;19939;-57
2022/08/14 11:56:20;;;;;;;;;;;32.30;52.70;;;;;;5088665;28;19928;-56
2022/08/14 11:58:55;;;;;;;;;;;32.40;53.10;;;;;;5088692;28;19928;-55
2022/08/14 12:01:27;;;;;;;;;;;32.60;52.90;;;;;;5089113;28;19924;-56
2022/08/14 12:04:06;;;;;;;;;;;32.70;52.60;;;;;;5088437;28;19925;-57
2022/08/14 12:06:43;;;;;;;;;;;33.00;53.20;;;;;;5079529;28;19929;-55
2022/08/14 12:09:31;;;;;;;;;;;33.10;52.40;;;;;;5085594;28;19931;-55
2022/08/14 12:12:00;;;;;;;;;;;33.20;51.50;;;;;;5088743;28;19925;-58
2022/08/14 12:14:28;;;;;;;;;;;33.40;51.10;;;;;;5088455;28;19936;-55
2022/08/14 12:17:06;;;;;;;;;;;33.50;50.90;;;;;;5088726;28;19933;-57
2022/08/14 12:19:45;;;;;;;;;;;33.60;51.30;;;;;;5088553;28;19924;-59
2022/08/14 12:22:18;;;;;;;;;;;33.90;51.10;;;;;;5074253;28;19928;-57
2022/08/14 12:24:56;;;;;;;;;;;34.10;51.40;;;;;;5086814;28;19924;-57
2022/08/14 12:27:54;;;;;;;;;;;34.40;50.90;;;;;;5088438;28;19962;-61
2022/08/14 12:30:35;;;;;;;;;;;34.60;50.80;;;;;;5084371;28;20485;-55
2022/08/14 12:33:27;;;;;;;;;;;34.70;49.40;;;;;;5088336;28;20394;-57
2022/08/14 12:36:01;;;;;;;;;;;34.50;50.20;;;;;;5085943;28;19928;-56
2022/08/14 12:38:31;;;;;;;;;;;34.20;50.30;;;;;;5080249;28;19932;-55
2022/08/14 12:41:04;;;;;;;;;;;33.90;49.90;;;;;;5087977;28;20378;-55
2022/08/14 12:43:33;;;;;;;;;;;33.60;50.00;;;;;;5087133;28;20282;-61
2022/08/14 12:46:01;;;;;;;;;;;33.30;50.20;;;;;;5088570;28;19932;-55
2022/08/14 12:48:31;;;;;;;;;;;33.10;51.40;;;;;;5088381;28;20500;-55
2022/08/14 12:50:59;;;;;;;;;;;33.10;50.80;;;;;;5086557;28;19935;-56
2022/08/14 12:53:34;;;;;;;;;;;33.20;50.60;;;;;;5073771;28;19924;-56
2022/08/14 12:56:06;;;;;;;;;;;33.40;50.30;;;;;;5088333;28;20326;-55
2022/08/14 12:58:55;;;;;;;;;;;33.70;48.60;;;;;;5087186;28;19935;-55
2022/08/14 13:01:26;;;;;;;;;;;33.90;48.60;;;;;;5087025;28;19924;-56
2022/08/14 13:04:07;;;;;;;;;;;34.20;49.10;;;;;;5087892;28;19924;-55
2022/08/14 13:06:37;;;;;;;;;;;34.40;48.90;;;;;;5085917;28;19925;-60
2022/08/14 13:09:06;;;;;;;;;;;34.60;48.60;;;;;;5088050;28;19931;-56
2022/08/14 13:11:39;;;;;;;;;;;34.80;48.40;;;;;;5091811;28;19935;-55
2022/08/14 13:14:14;;;;;;;;;;;35.00;48.50;;;;;;5091314;28;19924;-55
2022/08/14 13:16:44;;;;;;;;;;;35.20;48.40;;;;;;5091742;28;19931;-55
2022/08/14 13:19:17;;;;;;;;;;;35.40;47.70;;;;;;5091463;28;19928;-55
2022/08/14 13:21:47;;;;;;;;;;;35.60;47.80;;;;;;5085174;28;19924;-55
2022/08/14 13:24:37;;;;;;;;;;;35.70;47.90;;;;;;5085001;28;20414;-57
2022/08/14 13:27:07;;;;;;;;;;;36.00;47.90;;;;;;5090244;28;19931;-56
2022/08/14 13:29:40;;;;;;;;;;;36.10;46.80;;;;;;5091405;28;19932;-57
2022/08/14 13:32:13;;;;;;;;;;;36.20;46.70;;;;;;5091665;28;19928;-58
2022/08/14 13:34:44;;;;;;;;;;;36.50;47.00;;;;;;5091168;28;20364;-58
2022/08/14 13:37:15;;;;;;;;;;;36.70;46.20;;;;;;5083470;28;19935;-61
2022/08/14 13:39:47;;;;;;;;;;;36.80;46.50;;;;;;5090858;28;19948;-62
2022/08/14 13:42:26;;;;;;;;;;;36.90;46.20;;;;;;5091130;28;19924;-62
2022/08/14 13:44:59;;;;;;;;;;;37.20;46.20;;;;;;5090976;28;19931;-61
2022/08/14 13:47:28;;;;;;;;;;;37.20;45.40;;;;;;5090894;28;19931;-62
2022/08/14 13:50:01;;;;;;;;;;;37.30;45.20;;;;;;5089598;28;20536;-60
2022/08/14 13:52:43;;;;;;;;;;;37.30;44.80;;;;;;5080365;28;20551;-61
2022/08/14 13:55:21;;;;;;;;;;;37.50;44.80;;;;;;5070681;28;19932;-61
2022/08/14 13:57:49;;;;;;;;;;;37.60;44.30;;;;;;5076881;28;19933;-62
2022/08/14 14:00:32;;;;;;;;;;;37.60;44.00;;;;;;5090892;28;19924;-62
2022/08/14 14:03:19;;;;;;;;;;;37.50;43.50;;;;;;5089719;28;20299;-62
2022/08/14 14:05:52;;;;;;;;;;;37.50;44.10;;;;;;5090831;28;19931;-62
2022/08/14 14:08:21;;;;;;;;;;;37.60;44.30;;;;;;5084584;28;19924;-62
2022/08/14 14:11:09;;;;;;;;;;;37.60;43.30;;;;;;5090523;28;19924;-62
2022/08/14 14:13:38;;;;;;;;;;;37.60;43.20;;;;;;5090054;28;19924;-62
2022/08/14 14:16:13;;;;;;;;;;;37.80;43.40;;;;;;5089568;28;20397;-62
2022/08/14 14:18:50;;;;;;;;;;;38.00;43.00;;;;;;5090282;28;19924;-62
2022/08/14 14:21:19;;;;;;;;;;;38.10;42.70;;;;;;5089020;28;19924;-60
2022/08/14 14:23:48;;;;;;;;;;;38.00;42.20;;;;;;5077876;28;19924;-63
2022/08/14 14:26:17;;;;;;;;;;;37.90;43.10;;;;;;5090482;28;19924;-61
2022/08/14 14:28:54;;;;;;;;;;;37.80;42.60;;;;;;5090016;28;19931;-61
2022/08/14 14:31:25;;;;;;;;;;;37.70;42.50;;;;;;5090275;28;19924;-63
2022/08/14 14:33:58;;;;;;;;;;;37.90;42.90;;;;;;5089982;28;19924;-62
2022/08/14 14:36:28;;;;;;;;;;;38.00;42.20;;;;;;5088767;28;19931;-61
2022/08/14 14:38:56;;;;;;;;;;;38.10;42.30;;;;;;5085831;28;19924;-60
2022/08/14 14:41:27;;;;;;;;;;;38.10;42.10;;;;;;5090033;28;19924;-62
2022/08/14 14:44:06;;;;;;;;;;;38.00;41.30;;;;;;5089845;28;19925;-57
2022/08/14 14:46:37;;;;;;;;;;;37.90;41.70;;;;;;5089768;28;19924;-61
2022/08/14 14:49:12;;;;;;;;;;;37.70;41.20;;;;;;5090006;28;19924;-61
2022/08/14 14:51:45;;;;;;;;;;;37.60;41.30;;;;;;5089718;28;20367;-58
2022/08/14 14:54:18;;;;;;;;;;;37.30;41.50;;;;;;5080636;28;20442;-56
2022/08/14 14:57:04;;;;;;;;;;;37.00;41.90;;;;;;5089406;28;19933;-56
2022/08/14 14:59:36;;;;;;;;;;;37.00;42.30;;;;;;5089680;28;19931;-57
2022/08/14 15:02:05;;;;;;;;;;;36.80;42.80;;;;;;5089693;28;20367;-56
2022/08/14 15:04:36;;;;;;;;;;;36.50;42.20;;;;;;5089294;28;20327;-59
2022/08/14 15:07:05;;;;;;;;;;;36.10;42.40;;;;;;5087835;28;20363;-57
2022/08/14 15:09:33;;;;;;;;;;;35.80;43.00;;;;;;5067998;28;19932;-58
2022/08/14 15:12:01;;;;;;;;;;;35.30;43.00;;;;;;5069775;28;19924;-55
2022/08/14 15:14:49;;;;;;;;;;;34.90;43.30;;;;;;5085378;28;19924;-55
2022/08/14 15:17:24;;;;;;;;;;;34.50;43.60;;;;;;5089420;28;19948;-61